sensor_id;sensor_type;location;lat;lon;timestamp;P1;durP1;ratioP1;P2;durP2;ratioP2
15799;SDS011;8002;51.196;7.010;2023-10-09T00:00:33;18.80;;;13.75;;
15799;SDS011;8002;51.196;7.010;2023-10-09T00:03:15;20.80;;;14.13;;
15799;SDS011;8002;51.196;7.010;2023-10-09T00:05:42;19.38;;;13.48;;
15799;SDS011;8002;51.196;7.010;2023-10-09T00:08:12;20.83;;;13.98;;
15799;SDS011;8002;51.196;7.010;2023-10-09T00:10:42;20.42;;;15.10;;
15799;SDS011;8002;51.196;7.010;2023-10-09T00:13:14;16.10;;;12.38;;
15799;SDS011;8002;51.196;7.010;2023-10-09T00:15:42;19.73;;;13.57;;
15799;SDS011;8002;51.196;7.010;2023-10-09T00:18:08;17.27;;;13.07;;
15799;SDS011;8002;51.196;7.010;2023-10-09T00:20:37;18.77;;;12.98;;
15799;SDS011;8002;51.196;7.010;2023-10-09T00:23:07;18.08;;;13.40;;
15799;SDS011;8002;51.196;7.010;2023-10-09T00:25:39;18.70;;;12.93;;
15799;SDS011;8002;51.196;7.010;2023-10-09T00:28:12;14.77;;;12.15;;
15799;SDS011;8002;51.196;7.010;2023-10-09T00:30:41;17.77;;;12.55;;
15799;SDS011;8002;51.196;7.010;2023-10-09T00:33:08;17.50;;;13.63;;
15799;SDS011;8002;51.196;7.010;2023-10-09T00:35:36;18.85;;;11.55;;
15799;SDS011;8002;51.196;7.010;2023-10-09T00:38:02;18.90;;;13.00;;
15799;SDS011;8002;51.196;7.010;2023-10-09T00:40:39;18.33;;;11.57;;
15799;SDS011;8002;51.196;7.010;2023-10-09T00:43:12;16.95;;;11.57;;
15799;SDS011;8002;51.196;7.010;2023-10-09T00:45:39;15.40;;;11.65;;
15799;SDS011;8002;51.196;7.010;2023-10-09T00:48:07;16.27;;;12.25;;
15799;SDS011;8002;51.196;7.010;2023-10-09T00:50:35;14.88;;;10.80;;
15799;SDS011;8002;51.196;7.010;2023-10-09T00:53:03;17.15;;;11.45;;
15799;SDS011;8002;51.196;7.010;2023-10-09T00:55:37;16.30;;;11.88;;
15799;SDS011;8002;51.196;7.010;2023-10-09T00:58:10;14.40;;;10.40;;
15799;SDS011;8002;51.196;7.010;2023-10-09T01:00:39;13.63;;;10.85;;
15799;SDS011;8002;51.196;7.010;2023-10-09T01:03:13;15.90;;;11.15;;
15799;SDS011;8002;51.196;7.010;2023-10-09T01:05:45;14.80;;;10.93;;
15799;SDS011;8002;51.196;7.010;2023-10-09T01:08:17;15.90;;;10.85;;
15799;SDS011;8002;51.196;7.010;2023-10-09T01:10:50;14.00;;;10.32;;
15799;SDS011;8002;51.196;7.010;2023-10-09T01:13:17;16.15;;;11.75;;
15799;SDS011;8002;51.196;7.010;2023-10-09T01:15:44;14.52;;;10.65;;
15799;SDS011;8002;51.196;7.010;2023-10-09T01:18:12;14.23;;;11.32;;
15799;SDS011;8002;51.196;7.010;2023-10-09T01:20:40;14.88;;;11.43;;
15799;SDS011;8002;51.196;7.010;2023-10-09T01:23:11;17.05;;;10.55;;
15799;SDS011;8002;51.196;7.010;2023-10-09T01:25:38;16.17;;;11.18;;
15799;SDS011;8002;51.196;7.010;2023-10-09T01:28:14;14.25;;;10.77;;
15799;SDS011;8002;51.196;7.010;2023-10-09T01:30:41;14.88;;;10.57;;
15799;SDS011;8002;51.196;7.010;2023-10-09T01:33:08;12.88;;;8.90;;
15799;SDS011;8002;51.196;7.010;2023-10-09T01:35:47;13.13;;;10.10;;
15799;SDS011;8002;51.196;7.010;2023-10-09T01:38:15;14.65;;;10.25;;
15799;SDS011;8002;51.196;7.010;2023-10-09T01:40:41;13.43;;;9.65;;
15799;SDS011;8002;51.196;7.010;2023-10-09T01:43:09;15.07;;;9.73;;
15799;SDS011;8002;51.196;7.010;2023-10-09T01:45:36;14.10;;;10.30;;
15799;SDS011;8002;51.196;7.010;2023-10-09T01:48:07;13.85;;;10.27;;
15799;SDS011;8002;51.196;7.010;2023-10-09T01:50:34;14.20;;;10.38;;
15799;SDS011;8002;51.196;7.010;2023-10-09T01:53:02;14.00;;;8.73;;
15799;SDS011;8002;51.196;7.010;2023-10-09T01:55:32;10.52;;;8.32;;
15799;SDS011;8002;51.196;7.010;2023-10-09T01:58:05;11.70;;;8.55;;
15799;SDS011;8002;51.196;7.010;2023-10-09T02:00:35;10.73;;;8.15;;
15799;SDS011;8002;51.196;7.010;2023-10-09T02:03:08;11.00;;;8.82;;
15799;SDS011;8002;51.196;7.010;2023-10-09T02:05:41;13.23;;;8.63;;
15799;SDS011;8002;51.196;7.010;2023-10-09T02:08:07;11.85;;;8.60;;
15799;SDS011;8002;51.196;7.010;2023-10-09T02:10:39;11.30;;;8.75;;
15799;SDS011;8002;51.196;7.010;2023-10-09T02:13:09;10.23;;;8.48;;
15799;SDS011;8002;51.196;7.010;2023-10-09T02:15:36;11.07;;;8.27;;
15799;SDS011;8002;51.196;7.010;2023-10-09T02:18:19;11.43;;;8.50;;
15799;SDS011;8002;51.196;7.010;2023-10-09T02:20:53;11.68;;;8.63;;
15799;SDS011;8002;51.196;7.010;2023-10-09T02:23:26;11.57;;;9.10;;
15799;SDS011;8002;51.196;7.010;2023-10-09T02:26:05;11.10;;;8.10;;
15799;SDS011;8002;51.196;7.010;2023-10-09T02:28:33;11.93;;;9.00;;
15799;SDS011;8002;51.196;7.010;2023-10-09T02:31:00;11.75;;;8.50;;
15799;SDS011;8002;51.196;7.010;2023-10-09T02:33:34;11.85;;;8.52;;
15799;SDS011;8002;51.196;7.010;2023-10-09T02:36:01;11.05;;;8.35;;
15799;SDS011;8002;51.196;7.010;2023-10-09T02:38:30;10.52;;;7.93;;
15799;SDS011;8002;51.196;7.010;2023-10-09T02:40:59;12.05;;;8.55;;
15799;SDS011;8002;51.196;7.010;2023-10-09T02:43:47;12.73;;;8.85;;
15799;SDS011;8002;51.196;7.010;2023-10-09T02:46:15;11.35;;;7.82;;
15799;SDS011;8002;51.196;7.010;2023-10-09T02:48:43;12.00;;;8.90;;
15799;SDS011;8002;51.196;7.010;2023-10-09T02:51:12;13.15;;;8.48;;
15799;SDS011;8002;51.196;7.010;2023-10-09T02:53:47;9.73;;;8.27;;
15799;SDS011;8002;51.196;7.010;2023-10-09T02:56:14;10.50;;;8.60;;
15799;SDS011;8002;51.196;7.010;2023-10-09T02:58:43;10.80;;;8.02;;
15799;SDS011;8002;51.196;7.010;2023-10-09T03:01:11;11.18;;;8.50;;
15799;SDS011;8002;51.196;7.010;2023-10-09T03:03:38;13.25;;;9.38;;
15799;SDS011;8002;51.196;7.010;2023-10-09T03:06:06;10.77;;;8.10;;
15799;SDS011;8002;51.196;7.010;2023-10-09T03:08:36;9.52;;;7.32;;
15799;SDS011;8002;51.196;7.010;2023-10-09T03:11:03;11.50;;;8.07;;
15799;SDS011;8002;51.196;7.010;2023-10-09T03:13:31;11.57;;;9.00;;
15799;SDS011;8002;51.196;7.010;2023-10-09T03:15:58;9.88;;;7.82;;
15799;SDS011;8002;51.196;7.010;2023-10-09T03:18:26;10.32;;;8.50;;
15799;SDS011;8002;51.196;7.010;2023-10-09T03:20:53;10.55;;;8.13;;
15799;SDS011;8002;51.196;7.010;2023-10-09T03:23:21;11.32;;;7.68;;
15799;SDS011;8002;51.196;7.010;2023-10-09T03:25:48;9.38;;;7.38;;
15799;SDS011;8002;51.196;7.010;2023-10-09T03:28:14;11.48;;;7.28;;
15799;SDS011;8002;51.196;7.010;2023-10-09T03:30:41;9.45;;;7.82;;
15799;SDS011;8002;51.196;7.010;2023-10-09T03:33:12;10.45;;;7.78;;
15799;SDS011;8002;51.196;7.010;2023-10-09T03:35:39;8.48;;;7.53;;
15799;SDS011;8002;51.196;7.010;2023-10-09T03:38:06;9.70;;;7.15;;
15799;SDS011;8002;51.196;7.010;2023-10-09T03:40:40;9.40;;;8.35;;
15799;SDS011;8002;51.196;7.010;2023-10-09T03:43:07;10.80;;;7.43;;
15799;SDS011;8002;51.196;7.010;2023-10-09T03:45:35;8.68;;;7.18;;
15799;SDS011;8002;51.196;7.010;2023-10-09T03:48:03;9.35;;;7.60;;
15799;SDS011;8002;51.196;7.010;2023-10-09T03:50:34;8.25;;;7.32;;
15799;SDS011;8002;51.196;7.010;2023-10-09T03:53:04;9.48;;;7.28;;
15799;SDS011;8002;51.196;7.010;2023-10-09T03:55:32;9.10;;;7.72;;
15799;SDS011;8002;51.196;7.010;2023-10-09T03:57:59;9.77;;;7.38;;
15799;SDS011;8002;51.196;7.010;2023-10-09T04:00:27;10.43;;;7.72;;
15799;SDS011;8002;51.196;7.010;2023-10-09T04:02:54;8.38;;;7.38;;
15799;SDS011;8002;51.196;7.010;2023-10-09T04:05:22;12.02;;;7.63;;
15799;SDS011;8002;51.196;7.010;2023-10-09T04:07:48;8.73;;;7.25;;
15799;SDS011;8002;51.196;7.010;2023-10-09T04:10:17;8.13;;;6.78;;
15799;SDS011;8002;51.196;7.010;2023-10-09T04:13:00;9.45;;;7.07;;
15799;SDS011;8002;51.196;7.010;2023-10-09T04:15:28;10.77;;;8.23;;
15799;SDS011;8002;51.196;7.010;2023-10-09T04:18:00;12.15;;;7.72;;
15799;SDS011;8002;51.196;7.010;2023-10-09T04:20:28;10.77;;;7.65;;
15799;SDS011;8002;51.196;7.010;2023-10-09T04:23:12;11.00;;;7.90;;
15799;SDS011;8002;51.196;7.010;2023-10-09T04:25:42;9.02;;;7.68;;
15799;SDS011;8002;51.196;7.010;2023-10-09T04:28:10;9.73;;;7.20;;
15799;SDS011;8002;51.196;7.010;2023-10-09T04:30:44;9.30;;;7.57;;
15799;SDS011;8002;51.196;7.010;2023-10-09T04:33:11;9.50;;;7.38;;
15799;SDS011;8002;51.196;7.010;2023-10-09T04:35:54;8.32;;;7.40;;
15799;SDS011;8002;51.196;7.010;2023-10-09T04:38:34;9.82;;;7.65;;
15799;SDS011;8002;51.196;7.010;2023-10-09T04:41:05;11.65;;;8.60;;
15799;SDS011;8002;51.196;7.010;2023-10-09T04:43:33;8.13;;;6.80;;
15799;SDS011;8002;51.196;7.010;2023-10-09T04:45:58;7.63;;;6.80;;
15799;SDS011;8002;51.196;7.010;2023-10-09T04:48:37;11.57;;;8.43;;
15799;SDS011;8002;51.196;7.010;2023-10-09T04:51:03;8.77;;;7.88;;
15799;SDS011;8002;51.196;7.010;2023-10-09T04:53:59;10.80;;;8.45;;
15799;SDS011;8002;51.196;7.010;2023-10-09T04:56:39;11.52;;;7.75;;
15799;SDS011;8002;51.196;7.010;2023-10-09T04:59:16;9.93;;;7.57;;
15799;SDS011;8002;51.196;7.010;2023-10-09T05:01:43;10.07;;;7.82;;
15799;SDS011;8002;51.196;7.010;2023-10-09T05:04:11;10.07;;;7.75;;
15799;SDS011;8002;51.196;7.010;2023-10-09T05:06:54;8.90;;;7.35;;
15799;SDS011;8002;51.196;7.010;2023-10-09T05:09:21;8.07;;;7.25;;
15799;SDS011;8002;51.196;7.010;2023-10-09T05:11:48;10.95;;;7.45;;
15799;SDS011;8002;51.196;7.010;2023-10-09T05:14:34;10.30;;;8.00;;
15799;SDS011;8002;51.196;7.010;2023-10-09T05:17:10;9.98;;;7.78;;
15799;SDS011;8002;51.196;7.010;2023-10-09T05:19:42;8.95;;;7.50;;
15799;SDS011;8002;51.196;7.010;2023-10-09T05:22:10;12.55;;;9.18;;
15799;SDS011;8002;51.196;7.010;2023-10-09T05:24:54;9.95;;;8.20;;
15799;SDS011;8002;51.196;7.010;2023-10-09T05:27:21;9.63;;;7.75;;
15799;SDS011;8002;51.196;7.010;2023-10-09T05:30:10;10.23;;;7.78;;
15799;SDS011;8002;51.196;7.010;2023-10-09T05:32:50;11.20;;;8.35;;
15799;SDS011;8002;51.196;7.010;2023-10-09T05:35:20;8.90;;;7.35;;
15799;SDS011;8002;51.196;7.010;2023-10-09T05:37:55;9.88;;;8.05;;
15799;SDS011;8002;51.196;7.010;2023-10-09T05:40:26;10.15;;;7.90;;
15799;SDS011;8002;51.196;7.010;2023-10-09T05:42:57;11.45;;;7.85;;
15799;SDS011;8002;51.196;7.010;2023-10-09T05:45:24;10.27;;;7.38;;
15799;SDS011;8002;51.196;7.010;2023-10-09T05:48:10;8.55;;;6.20;;
15799;SDS011;8002;51.196;7.010;2023-10-09T05:50:54;12.52;;;7.78;;
15799;SDS011;8002;51.196;7.010;2023-10-09T05:53:58;8.20;;;6.68;;
15799;SDS011;8002;51.196;7.010;2023-10-09T05:56:42;10.02;;;6.63;;
15799;SDS011;8002;51.196;7.010;2023-10-09T05:59:56;12.25;;;8.88;;
15799;SDS011;8002;51.196;7.010;2023-10-09T06:02:40;10.52;;;8.32;;
15799;SDS011;8002;51.196;7.010;2023-10-09T06:05:24;9.95;;;8.40;;
15799;SDS011;8002;51.196;7.010;2023-10-09T06:08:28;9.02;;;7.60;;
15799;SDS011;8002;51.196;7.010;2023-10-09T06:11:15;12.25;;;8.75;;
15799;SDS011;8002;51.196;7.010;2023-10-09T06:13:56;11.07;;;8.02;;
15799;SDS011;8002;51.196;7.010;2023-10-09T06:16:30;11.20;;;7.45;;
15799;SDS011;8002;51.196;7.010;2023-10-09T06:19:06;13.15;;;7.88;;
15799;SDS011;8002;51.196;7.010;2023-10-09T06:21:37;10.15;;;7.05;;
15799;SDS011;8002;51.196;7.010;2023-10-09T06:24:26;8.50;;;6.97;;
15799;SDS011;8002;51.196;7.010;2023-10-09T06:26:58;8.32;;;6.95;;
15799;SDS011;8002;51.196;7.010;2023-10-09T06:29:42;9.30;;;6.95;;
15799;SDS011;8002;51.196;7.010;2023-10-09T06:32:39;8.00;;;7.20;;
15799;SDS011;8002;51.196;7.010;2023-10-09T06:35:14;7.72;;;6.93;;
15799;SDS011;8002;51.196;7.010;2023-10-09T06:37:41;8.95;;;6.95;;
15799;SDS011;8002;51.196;7.010;2023-10-09T06:40:22;9.70;;;8.15;;
15799;SDS011;8002;51.196;7.010;2023-10-09T06:43:06;10.23;;;7.80;;
15799;SDS011;8002;51.196;7.010;2023-10-09T06:45:34;10.40;;;8.27;;
15799;SDS011;8002;51.196;7.010;2023-10-09T06:48:10;9.07;;;7.45;;
15799;SDS011;8002;51.196;7.010;2023-10-09T06:50:50;10.02;;;7.25;;
15799;SDS011;8002;51.196;7.010;2023-10-09T06:53:32;10.60;;;8.00;;
15799;SDS011;8002;51.196;7.010;2023-10-09T06:56:22;8.10;;;6.97;;
15799;SDS011;8002;51.196;7.010;2023-10-09T06:59:09;9.45;;;7.68;;
15799;SDS011;8002;51.196;7.010;2023-10-09T07:01:41;10.27;;;7.50;;
15799;SDS011;8002;51.196;7.010;2023-10-09T07:04:09;9.65;;;7.65;;
15799;SDS011;8002;51.196;7.010;2023-10-09T07:06:44;9.65;;;6.63;;
15799;SDS011;8002;51.196;7.010;2023-10-09T07:09:16;8.70;;;6.93;;
15799;SDS011;8002;51.196;7.010;2023-10-09T07:11:44;8.80;;;7.63;;
15799;SDS011;8002;51.196;7.010;2023-10-09T07:14:24;9.07;;;7.50;;
15799;SDS011;8002;51.196;7.010;2023-10-09T07:17:13;8.50;;;7.32;;
15799;SDS011;8002;51.196;7.010;2023-10-09T07:19:48;8.88;;;6.90;;
15799;SDS011;8002;51.196;7.010;2023-10-09T07:22:41;7.68;;;6.72;;
15799;SDS011;8002;51.196;7.010;2023-10-09T07:25:21;7.95;;;7.15;;
15799;SDS011;8002;51.196;7.010;2023-10-09T07:28:06;10.05;;;7.88;;
15799;SDS011;8002;51.196;7.010;2023-10-09T07:30:43;8.90;;;7.35;;
15799;SDS011;8002;51.196;7.010;2023-10-09T07:33:08;8.82;;;7.70;;
15799;SDS011;8002;51.196;7.010;2023-10-09T07:35:44;9.23;;;8.07;;
15799;SDS011;8002;51.196;7.010;2023-10-09T07:38:13;7.93;;;7.13;;
15799;SDS011;8002;51.196;7.010;2023-10-09T07:40:44;9.10;;;7.93;;
15799;SDS011;8002;51.196;7.010;2023-10-09T07:43:20;9.00;;;7.55;;
15799;SDS011;8002;51.196;7.010;2023-10-09T07:45:51;8.77;;;7.20;;
15799;SDS011;8002;51.196;7.010;2023-10-09T07:48:41;9.93;;;7.68;;
15799;SDS011;8002;51.196;7.010;2023-10-09T07:51:15;9.38;;;7.07;;
15799;SDS011;8002;51.196;7.010;2023-10-09T07:53:41;9.02;;;6.57;;
15799;SDS011;8002;51.196;7.010;2023-10-09T07:56:09;10.48;;;8.10;;
15799;SDS011;8002;51.196;7.010;2023-10-09T07:58:38;10.40;;;7.75;;
15799;SDS011;8002;51.196;7.010;2023-10-09T08:01:12;8.93;;;8.02;;
15799;SDS011;8002;51.196;7.010;2023-10-09T08:03:47;8.60;;;7.60;;
15799;SDS011;8002;51.196;7.010;2023-10-09T08:06:23;9.05;;;7.20;;
15799;SDS011;8002;51.196;7.010;2023-10-09T08:09:04;12.75;;;8.43;;
15799;SDS011;8002;51.196;7.010;2023-10-09T08:12:11;10.55;;;7.95;;
15799;SDS011;8002;51.196;7.010;2023-10-09T08:15:00;10.13;;;7.97;;
15799;SDS011;8002;51.196;7.010;2023-10-09T08:17:45;10.73;;;8.43;;
15799;SDS011;8002;51.196;7.010;2023-10-09T08:20:16;11.63;;;8.48;;
15799;SDS011;8002;51.196;7.010;2023-10-09T08:22:43;11.25;;;8.07;;
15799;SDS011;8002;51.196;7.010;2023-10-09T08:25:15;10.07;;;8.20;;
15799;SDS011;8002;51.196;7.010;2023-10-09T08:27:56;9.88;;;7.35;;
15799;SDS011;8002;51.196;7.010;2023-10-09T08:30:23;12.15;;;8.15;;
15799;SDS011;8002;51.196;7.010;2023-10-09T08:33:06;14.38;;;8.07;;
15799;SDS011;8002;51.196;7.010;2023-10-09T08:35:54;11.18;;;7.60;;
15799;SDS011;8002;51.196;7.010;2023-10-09T08:38:28;10.95;;;6.55;;
15799;SDS011;8002;51.196;7.010;2023-10-09T08:41:05;9.25;;;7.25;;
15799;SDS011;8002;51.196;7.010;2023-10-09T08:43:41;7.22;;;6.03;;
15799;SDS011;8002;51.196;7.010;2023-10-09T08:46:12;8.30;;;6.95;;
15799;SDS011;8002;51.196;7.010;2023-10-09T08:48:43;9.00;;;6.82;;
15799;SDS011;8002;51.196;7.010;2023-10-09T08:51:10;11.20;;;7.43;;
15799;SDS011;8002;51.196;7.010;2023-10-09T08:53:37;10.52;;;7.40;;
15799;SDS011;8002;51.196;7.010;2023-10-09T08:56:08;9.50;;;7.05;;
15799;SDS011;8002;51.196;7.010;2023-10-09T08:58:34;11.45;;;7.35;;
15799;SDS011;8002;51.196;7.010;2023-10-09T09:01:02;11.48;;;8.55;;
15799;SDS011;8002;51.196;7.010;2023-10-09T09:03:37;12.02;;;8.70;;
15799;SDS011;8002;51.196;7.010;2023-10-09T09:06:04;14.35;;;9.10;;
15799;SDS011;8002;51.196;7.010;2023-10-09T09:08:30;9.48;;;8.52;;
15799;SDS011;8002;51.196;7.010;2023-10-09T09:10:59;9.90;;;8.38;;
15799;SDS011;8002;51.196;7.010;2023-10-09T09:13:36;14.02;;;9.40;;
15799;SDS011;8002;51.196;7.010;2023-10-09T09:16:03;11.13;;;8.15;;
15799;SDS011;8002;51.196;7.010;2023-10-09T09:18:29;10.73;;;7.65;;
15799;SDS011;8002;51.196;7.010;2023-10-09T09:21:01;12.73;;;8.38;;
15799;SDS011;8002;51.196;7.010;2023-10-09T09:23:29;11.30;;;8.27;;
15799;SDS011;8002;51.196;7.010;2023-10-09T09:25:55;10.88;;;8.80;;
15799;SDS011;8002;51.196;7.010;2023-10-09T09:28:27;13.73;;;8.57;;
15799;SDS011;8002;51.196;7.010;2023-10-09T09:31:06;10.55;;;8.98;;
15799;SDS011;8002;51.196;7.010;2023-10-09T09:33:38;14.35;;;8.77;;
15799;SDS011;8002;51.196;7.010;2023-10-09T09:36:05;10.65;;;8.30;;
15799;SDS011;8002;51.196;7.010;2023-10-09T09:38:32;9.18;;;7.60;;
15799;SDS011;8002;51.196;7.010;2023-10-09T09:41:07;11.27;;;8.88;;
15799;SDS011;8002;51.196;7.010;2023-10-09T09:43:35;10.73;;;7.90;;
15799;SDS011;8002;51.196;7.010;2023-10-09T09:46:05;11.60;;;9.48;;
15799;SDS011;8002;51.196;7.010;2023-10-09T09:48:37;10.20;;;8.00;;
15799;SDS011;8002;51.196;7.010;2023-10-09T09:51:04;9.20;;;7.97;;
15799;SDS011;8002;51.196;7.010;2023-10-09T09:53:33;10.90;;;8.25;;
15799;SDS011;8002;51.196;7.010;2023-10-09T09:56:00;8.50;;;7.38;;
15799;SDS011;8002;51.196;7.010;2023-10-09T09:58:27;11.02;;;8.73;;
15799;SDS011;8002;51.196;7.010;2023-10-09T10:01:00;13.75;;;8.85;;
15799;SDS011;8002;51.196;7.010;2023-10-09T10:03:34;11.15;;;7.93;;
15799;SDS011;8002;51.196;7.010;2023-10-09T10:06:02;8.18;;;7.07;;
15799;SDS011;8002;51.196;7.010;2023-10-09T10:08:35;10.52;;;8.35;;
15799;SDS011;8002;51.196;7.010;2023-10-09T10:11:04;8.95;;;7.72;;
15799;SDS011;8002;51.196;7.010;2023-10-09T10:16:17;12.23;;;7.88;;
15799;SDS011;8002;51.196;7.010;2023-10-09T10:18:52;9.90;;;7.88;;
15799;SDS011;8002;51.196;7.010;2023-10-09T10:21:19;8.38;;;5.75;;
15799;SDS011;8002;51.196;7.010;2023-10-09T10:23:58;8.90;;;7.05;;
15799;SDS011;8002;51.196;7.010;2023-10-09T10:26:31;10.40;;;7.00;;
15799;SDS011;8002;51.196;7.010;2023-10-09T10:31:53;9.77;;;6.72;;
15799;SDS011;8002;51.196;7.010;2023-10-09T10:34:20;7.50;;;6.60;;
15799;SDS011;8002;51.196;7.010;2023-10-09T10:36:48;8.25;;;6.15;;
15799;SDS011;8002;51.196;7.010;2023-10-09T10:39:17;6.82;;;6.00;;
15799;SDS011;8002;51.196;7.010;2023-10-09T10:41:55;10.13;;;6.10;;
15799;SDS011;8002;51.196;7.010;2023-10-09T10:44:28;9.25;;;6.90;;
15799;SDS011;8002;51.196;7.010;2023-10-09T10:47:04;8.80;;;6.32;;
15799;SDS011;8002;51.196;7.010;2023-10-09T10:49:42;9.68;;;6.30;;
15799;SDS011;8002;51.196;7.010;2023-10-09T10:52:08;8.55;;;6.13;;
15799;SDS011;8002;51.196;7.010;2023-10-09T10:54:45;7.38;;;5.82;;
15799;SDS011;8002;51.196;7.010;2023-10-09T10:57:14;7.28;;;6.35;;
15799;SDS011;8002;51.196;7.010;2023-10-09T10:59:44;6.97;;;5.72;;
15799;SDS011;8002;51.196;7.010;2023-10-09T11:02:11;7.65;;;5.80;;
15799;SDS011;8002;51.196;7.010;2023-10-09T11:04:47;9.93;;;6.88;;
15799;SDS011;8002;51.196;7.010;2023-10-09T11:07:21;9.30;;;6.38;;
15799;SDS011;8002;51.196;7.010;2023-10-09T11:09:52;9.88;;;6.68;;
15799;SDS011;8002;51.196;7.010;2023-10-09T11:12:41;10.48;;;5.50;;
15799;SDS011;8002;51.196;7.010;2023-10-09T11:15:10;6.72;;;5.45;;
15799;SDS011;8002;51.196;7.010;2023-10-09T11:17:59;6.38;;;5.60;;
15799;SDS011;8002;51.196;7.010;2023-10-09T11:20:30;10.02;;;5.93;;
15799;SDS011;8002;51.196;7.010;2023-10-09T11:22:58;9.98;;;5.82;;
15799;SDS011;8002;51.196;7.010;2023-10-09T11:25:43;7.55;;;6.10;;
15799;SDS011;8002;51.196;7.010;2023-10-09T11:28:16;9.05;;;6.82;;
15799;SDS011;8002;51.196;7.010;2023-10-09T11:30:53;7.63;;;6.82;;
15799;SDS011;8002;51.196;7.010;2023-10-09T11:33:21;8.32;;;6.20;;
15799;SDS011;8002;51.196;7.010;2023-10-09T11:35:54;6.65;;;5.95;;
15799;SDS011;8002;51.196;7.010;2023-10-09T11:38:22;9.05;;;6.75;;
15799;SDS011;8002;51.196;7.010;2023-10-09T11:40:48;9.80;;;5.88;;
15799;SDS011;8002;51.196;7.010;2023-10-09T11:43:44;11.15;;;6.80;;
15799;SDS011;8002;51.196;7.010;2023-10-09T11:46:16;7.25;;;6.40;;
15799;SDS011;8002;51.196;7.010;2023-10-09T11:49:04;8.95;;;7.40;;
15799;SDS011;8002;51.196;7.010;2023-10-09T11:51:50;8.48;;;6.90;;
15799;SDS011;8002;51.196;7.010;2023-10-09T11:54:50;8.07;;;6.32;;
15799;SDS011;8002;51.196;7.010;2023-10-09T11:57:15;9.02;;;6.20;;
15799;SDS011;8002;51.196;7.010;2023-10-09T11:59:42;9.00;;;6.97;;
15799;SDS011;8002;51.196;7.010;2023-10-09T12:02:09;8.02;;;6.80;;
15799;SDS011;8002;51.196;7.010;2023-10-09T12:04:38;9.32;;;6.93;;
15799;SDS011;8002;51.196;7.010;2023-10-09T12:07:07;7.43;;;6.05;;
15799;SDS011;8002;51.196;7.010;2023-10-09T12:09:34;9.13;;;6.63;;
15799;SDS011;8002;51.196;7.010;2023-10-09T12:12:00;7.25;;;6.55;;
15799;SDS011;8002;51.196;7.010;2023-10-09T12:14:27;7.38;;;6.55;;
15799;SDS011;8002;51.196;7.010;2023-10-09T12:16:58;9.98;;;7.75;;
15799;SDS011;8002;51.196;7.010;2023-10-09T12:19:30;7.90;;;6.38;;
15799;SDS011;8002;51.196;7.010;2023-10-09T12:21:57;8.65;;;6.30;;
15799;SDS011;8002;51.196;7.010;2023-10-09T12:24:25;7.65;;;6.20;;
15799;SDS011;8002;51.196;7.010;2023-10-09T12:26:52;7.60;;;6.55;;
15799;SDS011;8002;51.196;7.010;2023-10-09T12:29:19;8.77;;;7.35;;
15799;SDS011;8002;51.196;7.010;2023-10-09T12:31:45;9.07;;;7.15;;
15799;SDS011;8002;51.196;7.010;2023-10-09T12:34:11;7.57;;;6.28;;
15799;SDS011;8002;51.196;7.010;2023-10-09T12:36:41;8.85;;;6.88;;
15799;SDS011;8002;51.196;7.010;2023-10-09T12:39:10;7.60;;;6.78;;
15799;SDS011;8002;51.196;7.010;2023-10-09T12:41:42;7.03;;;5.82;;
15799;SDS011;8002;51.196;7.010;2023-10-09T12:44:09;7.90;;;6.78;;
15799;SDS011;8002;51.196;7.010;2023-10-09T12:46:39;7.75;;;6.53;;
15799;SDS011;8002;51.196;7.010;2023-10-09T12:49:06;8.15;;;5.88;;
15799;SDS011;8002;51.196;7.010;2023-10-09T12:51:32;6.15;;;5.50;;
15799;SDS011;8002;51.196;7.010;2023-10-09T12:53:58;8.05;;;6.53;;
15799;SDS011;8002;51.196;7.010;2023-10-09T12:56:27;8.13;;;6.43;;
15799;SDS011;8002;51.196;7.010;2023-10-09T12:59:02;7.68;;;6.13;;
15799;SDS011;8002;51.196;7.010;2023-10-09T13:01:30;9.93;;;6.75;;
15799;SDS011;8002;51.196;7.010;2023-10-09T13:03:57;7.82;;;6.03;;
15799;SDS011;8002;51.196;7.010;2023-10-09T13:06:24;7.75;;;6.95;;
15799;SDS011;8002;51.196;7.010;2023-10-09T13:08:51;7.88;;;5.72;;
15799;SDS011;8002;51.196;7.010;2023-10-09T13:11:17;10.98;;;7.75;;
15799;SDS011;8002;51.196;7.010;2023-10-09T13:13:47;9.38;;;6.30;;
15799;SDS011;8002;51.196;7.010;2023-10-09T13:16:16;9.43;;;5.93;;
15799;SDS011;8002;51.196;7.010;2023-10-09T13:18:48;7.40;;;5.93;;
15799;SDS011;8002;51.196;7.010;2023-10-09T13:21:16;8.13;;;7.05;;
15799;SDS011;8002;51.196;7.010;2023-10-09T13:23:42;8.15;;;7.20;;
15799;SDS011;8002;51.196;7.010;2023-10-09T13:26:12;7.70;;;6.57;;
15799;SDS011;8002;51.196;7.010;2023-10-09T13:28:45;8.20;;;6.57;;
15799;SDS011;8002;51.196;7.010;2023-10-09T13:31:12;6.95;;;6.25;;
15799;SDS011;8002;51.196;7.010;2023-10-09T13:33:40;9.93;;;6.30;;
15799;SDS011;8002;51.196;7.010;2023-10-09T13:36:06;9.38;;;5.65;;
15799;SDS011;8002;51.196;7.010;2023-10-09T13:38:41;6.95;;;6.13;;
15799;SDS011;8002;51.196;7.010;2023-10-09T13:41:08;8.10;;;6.88;;
15799;SDS011;8002;51.196;7.010;2023-10-09T13:43:38;6.63;;;5.95;;
15799;SDS011;8002;51.196;7.010;2023-10-09T13:46:05;8.25;;;6.00;;
15799;SDS011;8002;51.196;7.010;2023-10-09T13:48:34;8.90;;;6.13;;
15799;SDS011;8002;51.196;7.010;2023-10-09T13:51:03;8.45;;;5.60;;
15799;SDS011;8002;51.196;7.010;2023-10-09T13:53:32;6.65;;;5.97;;
15799;SDS011;8002;51.196;7.010;2023-10-09T13:56:00;7.90;;;6.30;;
15799;SDS011;8002;51.196;7.010;2023-10-09T13:58:27;8.38;;;6.50;;
15799;SDS011;8002;51.196;7.010;2023-10-09T14:00:56;6.85;;;5.45;;
15799;SDS011;8002;51.196;7.010;2023-10-09T14:03:23;9.93;;;6.28;;
15799;SDS011;8002;51.196;7.010;2023-10-09T14:05:53;6.88;;;6.10;;
15799;SDS011;8002;51.196;7.010;2023-10-09T14:08:22;8.82;;;6.05;;
15799;SDS011;8002;51.196;7.010;2023-10-09T14:10:48;6.97;;;6.18;;
15799;SDS011;8002;51.196;7.010;2023-10-09T14:13:15;9.80;;;8.07;;
15799;SDS011;8002;51.196;7.010;2023-10-09T14:15:42;7.70;;;6.38;;
15799;SDS011;8002;51.196;7.010;2023-10-09T14:18:11;7.47;;;6.10;;
15799;SDS011;8002;51.196;7.010;2023-10-09T14:20:37;7.40;;;6.05;;
15799;SDS011;8002;51.196;7.010;2023-10-09T14:23:07;12.88;;;8.68;;
15799;SDS011;8002;51.196;7.010;2023-10-09T14:25:37;9.68;;;6.55;;
15799;SDS011;8002;51.196;7.010;2023-10-09T14:28:05;11.45;;;6.47;;
15799;SDS011;8002;51.196;7.010;2023-10-09T14:30:32;11.55;;;6.68;;
15799;SDS011;8002;51.196;7.010;2023-10-09T14:33:06;8.95;;;7.35;;
15799;SDS011;8002;51.196;7.010;2023-10-09T14:35:37;10.77;;;7.38;;
15799;SDS011;8002;51.196;7.010;2023-10-09T14:38:04;9.55;;;6.35;;
15799;SDS011;8002;51.196;7.010;2023-10-09T14:40:39;10.60;;;8.07;;
15799;SDS011;8002;51.196;7.010;2023-10-09T14:43:06;8.48;;;7.10;;
15799;SDS011;8002;51.196;7.010;2023-10-09T14:45:36;9.55;;;7.45;;
15799;SDS011;8002;51.196;7.010;2023-10-09T14:48:02;9.63;;;6.85;;
15799;SDS011;8002;51.196;7.010;2023-10-09T14:50:29;7.88;;;6.30;;
15799;SDS011;8002;51.196;7.010;2023-10-09T14:52:55;8.80;;;6.43;;
15799;SDS011;8002;51.196;7.010;2023-10-09T14:55:21;7.15;;;6.38;;
15799;SDS011;8002;51.196;7.010;2023-10-09T14:57:55;7.25;;;6.55;;
15799;SDS011;8002;51.196;7.010;2023-10-09T15:00:23;7.80;;;6.50;;
15799;SDS011;8002;51.196;7.010;2023-10-09T15:02:51;8.90;;;7.05;;
15799;SDS011;8002;51.196;7.010;2023-10-09T15:05:17;9.55;;;7.43;;
15799;SDS011;8002;51.196;7.010;2023-10-09T15:07:44;7.78;;;6.97;;
15799;SDS011;8002;51.196;7.010;2023-10-09T15:10:10;10.73;;;7.70;;
15799;SDS011;8002;51.196;7.010;2023-10-09T15:12:40;10.35;;;7.80;;
15799;SDS011;8002;51.196;7.010;2023-10-09T15:15:10;7.60;;;6.35;;
15799;SDS011;8002;51.196;7.010;2023-10-09T15:17:38;9.57;;;7.63;;
15799;SDS011;8002;51.196;7.010;2023-10-09T15:20:06;8.48;;;7.22;;
15799;SDS011;8002;51.196;7.010;2023-10-09T15:22:38;13.25;;;7.20;;
15799;SDS011;8002;51.196;7.010;2023-10-09T15:25:05;8.07;;;6.88;;
15799;SDS011;8002;51.196;7.010;2023-10-09T15:27:31;8.70;;;7.45;;